sensor_id;sensor_type;location;lat;lon;timestamp;P1;durP1;ratioP1;P2;durP2;ratioP2
43363;SDS011;40636;52.424;-1.948;2023-08-20T00:01:04;6.07;;;1.85;;
43363;SDS011;40636;52.424;-1.948;2023-08-20T00:03:31;9.05;;;1.65;;
43363;SDS011;40636;52.424;-1.948;2023-08-20T00:05:58;4.97;;;1.50;;
43363;SDS011;40636;52.424;-1.948;2023-08-20T00:08:25;13.57;;;2.03;;
43363;SDS011;40636;52.424;-1.948;2023-08-20T00:10:52;4.30;;;1.52;;
43363;SDS011;40636;52.424;-1.948;2023-08-20T00:13:19;2.53;;;1.80;;
43363;SDS011;40636;52.424;-1.948;2023-08-20T00:15:45;2.35;;;1.13;;
43363;SDS011;40636;52.424;-1.948;2023-08-20T00:18:12;4.50;;;1.60;;
43363;SDS011;40636;52.424;-1.948;2023-08-20T00:20:40;3.70;;;1.08;;
43363;SDS011;40636;52.424;-1.948;2023-08-20T00:23:07;7.30;;;1.80;;
43363;SDS011;40636;52.424;-1.948;2023-08-20T00:25:34;2.88;;;1.20;;
43363;SDS011;40636;52.424;-1.948;2023-08-20T00:28:01;2.33;;;1.30;;
43363;SDS011;40636;52.424;-1.948;2023-08-20T00:30:28;4.60;;;1.50;;
43363;SDS011;40636;52.424;-1.948;2023-08-20T00:32:55;6.80;;;1.45;;
43363;SDS011;40636;52.424;-1.948;2023-08-20T00:35:22;5.50;;;1.70;;
43363;SDS011;40636;52.424;-1.948;2023-08-20T00:37:49;5.45;;;1.60;;
43363;SDS011;40636;52.424;-1.948;2023-08-20T00:40:16;7.20;;;2.47;;
43363;SDS011;40636;52.424;-1.948;2023-08-20T00:42:43;5.03;;;1.42;;
43363;SDS011;40636;52.424;-1.948;2023-08-20T00:45:09;6.32;;;1.73;;
43363;SDS011;40636;52.424;-1.948;2023-08-20T00:47:36;6.22;;;1.58;;
43363;SDS011;40636;52.424;-1.948;2023-08-20T00:50:04;4.00;;;1.13;;
43363;SDS011;40636;52.424;-1.948;2023-08-20T00:52:33;5.00;;;1.48;;
43363;SDS011;40636;52.424;-1.948;2023-08-20T00:55:06;8.20;;;1.40;;
43363;SDS011;40636;52.424;-1.948;2023-08-20T00:57:38;3.55;;;1.27;;
43363;SDS011;40636;52.424;-1.948;2023-08-20T01:00:06;6.68;;;1.73;;
43363;SDS011;40636;52.424;-1.948;2023-08-20T01:02:38;4.95;;;1.75;;
43363;SDS011;40636;52.424;-1.948;2023-08-20T01:05:09;3.15;;;1.73;;
43363;SDS011;40636;52.424;-1.948;2023-08-20T01:13:15;4.55;;;1.58;;
43363;SDS011;40636;52.424;-1.948;2023-08-20T01:15:42;6.47;;;1.40;;
43363;SDS011;40636;52.424;-1.948;2023-08-20T01:18:09;5.22;;;1.50;;
43363;SDS011;40636;52.424;-1.948;2023-08-20T01:20:39;2.50;;;1.55;;
43363;SDS011;40636;52.424;-1.948;2023-08-20T01:23:17;13.18;;;2.78;;
43363;SDS011;40636;52.424;-1.948;2023-08-20T01:26:42;3.70;;;1.33;;
43363;SDS011;40636;52.424;-1.948;2023-08-20T01:29:12;7.97;;;1.98;;
43363;SDS011;40636;52.424;-1.948;2023-08-20T01:31:39;11.82;;;1.92;;
43363;SDS011;40636;52.424;-1.948;2023-08-20T01:34:07;10.13;;;1.70;;
43363;SDS011;40636;52.424;-1.948;2023-08-20T01:36:33;6.13;;;1.90;;
43363;SDS011;40636;52.424;-1.948;2023-08-20T01:39:00;4.30;;;1.33;;
43363;SDS011;40636;52.424;-1.948;2023-08-20T01:41:27;7.32;;;1.67;;
43363;SDS011;40636;52.424;-1.948;2023-08-20T01:43:53;4.82;;;1.67;;
43363;SDS011;40636;52.424;-1.948;2023-08-20T01:46:20;4.53;;;1.33;;
43363;SDS011;40636;52.424;-1.948;2023-08-20T01:48:47;5.68;;;1.92;;
43363;SDS011;40636;52.424;-1.948;2023-08-20T01:51:14;5.78;;;1.33;;
43363;SDS011;40636;52.424;-1.948;2023-08-20T01:53:41;6.05;;;2.28;;
43363;SDS011;40636;52.424;-1.948;2023-08-20T01:56:11;3.70;;;1.55;;
43363;SDS011;40636;52.424;-1.948;2023-08-20T01:58:39;4.70;;;1.70;;
43363;SDS011;40636;52.424;-1.948;2023-08-20T02:01:06;8.40;;;1.77;;
43363;SDS011;40636;52.424;-1.948;2023-08-20T02:03:34;6.43;;;1.40;;
43363;SDS011;40636;52.424;-1.948;2023-08-20T02:06:02;4.68;;;2.42;;
43363;SDS011;40636;52.424;-1.948;2023-08-20T02:08:29;4.28;;;2.45;;
43363;SDS011;40636;52.424;-1.948;2023-08-20T02:11:02;5.95;;;2.45;;
43363;SDS011;40636;52.424;-1.948;2023-08-20T02:13:30;4.38;;;1.20;;
43363;SDS011;40636;52.424;-1.948;2023-08-20T02:16:00;4.25;;;1.60;;
43363;SDS011;40636;52.424;-1.948;2023-08-20T02:18:29;10.95;;;1.58;;
43363;SDS011;40636;52.424;-1.948;2023-08-20T02:20:56;6.38;;;1.88;;
43363;SDS011;40636;52.424;-1.948;2023-08-20T02:23:24;4.00;;;1.58;;
43363;SDS011;40636;52.424;-1.948;2023-08-20T02:25:51;7.28;;;1.70;;
43363;SDS011;40636;52.424;-1.948;2023-08-20T02:28:17;3.60;;;1.50;;
43363;SDS011;40636;52.424;-1.948;2023-08-20T02:30:45;4.20;;;1.95;;
43363;SDS011;40636;52.424;-1.948;2023-08-20T02:33:13;4.55;;;1.73;;
43363;SDS011;40636;52.424;-1.948;2023-08-20T02:35:40;7.55;;;1.95;;
43363;SDS011;40636;52.424;-1.948;2023-08-20T02:38:07;7.65;;;2.03;;
43363;SDS011;40636;52.424;-1.948;2023-08-20T02:40:39;6.95;;;2.05;;
43363;SDS011;40636;52.424;-1.948;2023-08-20T02:43:07;2.97;;;1.80;;
43363;SDS011;40636;52.424;-1.948;2023-08-20T02:45:41;6.10;;;2.30;;
43363;SDS011;40636;52.424;-1.948;2023-08-20T02:48:09;7.53;;;1.80;;
43363;SDS011;40636;52.424;-1.948;2023-08-20T02:50:36;3.97;;;2.08;;
43363;SDS011;40636;52.424;-1.948;2023-08-20T02:53:03;8.50;;;2.75;;
43363;SDS011;40636;52.424;-1.948;2023-08-20T02:55:30;8.85;;;2.40;;
43363;SDS011;40636;52.424;-1.948;2023-08-20T02:57:58;9.68;;;2.42;;
43363;SDS011;40636;52.424;-1.948;2023-08-20T03:00:25;8.60;;;3.30;;
43363;SDS011;40636;52.424;-1.948;2023-08-20T03:02:52;6.07;;;2.78;;
43363;SDS011;40636;52.424;-1.948;2023-08-20T03:05:19;11.35;;;3.17;;
43363;SDS011;40636;52.424;-1.948;2023-08-20T03:07:46;6.97;;;2.85;;
43363;SDS011;40636;52.424;-1.948;2023-08-20T03:10:12;9.32;;;2.80;;
43363;SDS011;40636;52.424;-1.948;2023-08-20T03:12:39;6.07;;;2.85;;
43363;SDS011;40636;52.424;-1.948;2023-08-20T03:15:06;6.03;;;2.92;;
43363;SDS011;40636;52.424;-1.948;2023-08-20T03:17:33;7.57;;;3.45;;
43363;SDS011;40636;52.424;-1.948;2023-08-20T03:20:00;8.07;;;2.88;;
43363;SDS011;40636;52.424;-1.948;2023-08-20T03:22:27;7.18;;;2.92;;
43363;SDS011;40636;52.424;-1.948;2023-08-20T03:24:54;6.25;;;2.60;;
43363;SDS011;40636;52.424;-1.948;2023-08-20T03:27:21;11.95;;;4.38;;
43363;SDS011;40636;52.424;-1.948;2023-08-20T03:29:48;8.63;;;3.25;;
43363;SDS011;40636;52.424;-1.948;2023-08-20T03:32:15;10.13;;;3.22;;
43363;SDS011;40636;52.424;-1.948;2023-08-20T03:34:41;8.65;;;2.92;;
43363;SDS011;40636;52.424;-1.948;2023-08-20T03:37:08;14.43;;;3.65;;
43363;SDS011;40636;52.424;-1.948;2023-08-20T03:39:35;13.30;;;2.92;;
43363;SDS011;40636;52.424;-1.948;2023-08-20T03:42:02;11.05;;;3.60;;
43363;SDS011;40636;52.424;-1.948;2023-08-20T03:44:30;8.35;;;2.95;;
43363;SDS011;40636;52.424;-1.948;2023-08-20T03:46:57;6.15;;;2.72;;
43363;SDS011;40636;52.424;-1.948;2023-08-20T03:49:24;13.38;;;3.92;;
43363;SDS011;40636;52.424;-1.948;2023-08-20T03:51:51;8.63;;;2.90;;
43363;SDS011;40636;52.424;-1.948;2023-08-20T03:54:18;10.23;;;3.20;;
43363;SDS011;40636;52.424;-1.948;2023-08-20T03:56:44;14.15;;;3.45;;
43363;SDS011;40636;52.424;-1.948;2023-08-20T03:59:11;7.15;;;2.88;;
43363;SDS011;40636;52.424;-1.948;2023-08-20T04:01:38;7.13;;;3.03;;
43363;SDS011;40636;52.424;-1.948;2023-08-20T04:04:05;11.07;;;3.67;;
43363;SDS011;40636;52.424;-1.948;2023-08-20T04:06:32;5.97;;;2.97;;
43363;SDS011;40636;52.424;-1.948;2023-08-20T04:08:58;5.53;;;2.50;;
43363;SDS011;40636;52.424;-1.948;2023-08-20T04:11:25;5.90;;;2.65;;
43363;SDS011;40636;52.424;-1.948;2023-08-20T04:13:52;9.55;;;3.10;;
43363;SDS011;40636;52.424;-1.948;2023-08-20T04:16:19;7.18;;;3.42;;
43363;SDS011;40636;52.424;-1.948;2023-08-20T04:18:46;9.00;;;2.88;;
43363;SDS011;40636;52.424;-1.948;2023-08-20T04:21:12;10.15;;;2.75;;
43363;SDS011;40636;52.424;-1.948;2023-08-20T04:23:39;8.70;;;3.00;;
43363;SDS011;40636;52.424;-1.948;2023-08-20T04:26:07;6.90;;;2.83;;
43363;SDS011;40636;52.424;-1.948;2023-08-20T04:28:34;6.38;;;3.38;;
43363;SDS011;40636;52.424;-1.948;2023-08-20T04:31:01;9.77;;;3.35;;
43363;SDS011;40636;52.424;-1.948;2023-08-20T04:33:27;8.45;;;3.35;;
43363;SDS011;40636;52.424;-1.948;2023-08-20T04:35:54;11.90;;;3.10;;
43363;SDS011;40636;52.424;-1.948;2023-08-20T04:38:21;10.32;;;3.33;;
43363;SDS011;40636;52.424;-1.948;2023-08-20T04:40:48;8.30;;;2.70;;
43363;SDS011;40636;52.424;-1.948;2023-08-20T04:43:15;7.00;;;3.40;;
43363;SDS011;40636;52.424;-1.948;2023-08-20T04:45:42;9.90;;;2.60;;
43363;SDS011;40636;52.424;-1.948;2023-08-20T04:48:09;6.40;;;3.03;;
43363;SDS011;40636;52.424;-1.948;2023-08-20T04:50:36;4.07;;;2.42;;
43363;SDS011;40636;52.424;-1.948;2023-08-20T04:53:03;7.05;;;2.90;;
43363;SDS011;40636;52.424;-1.948;2023-08-20T04:55:31;9.25;;;2.90;;
43363;SDS011;40636;52.424;-1.948;2023-08-20T04:57:58;11.40;;;3.30;;
43363;SDS011;40636;52.424;-1.948;2023-08-20T05:00:24;9.25;;;3.17;;
43363;SDS011;40636;52.424;-1.948;2023-08-20T05:02:51;7.43;;;2.90;;
43363;SDS011;40636;52.424;-1.948;2023-08-20T05:05:18;12.45;;;3.28;;
43363;SDS011;40636;52.424;-1.948;2023-08-20T05:07:45;9.48;;;3.15;;
43363;SDS011;40636;52.424;-1.948;2023-08-20T05:10:12;10.68;;;3.85;;
43363;SDS011;40636;52.424;-1.948;2023-08-20T05:12:38;9.23;;;4.28;;
43363;SDS011;40636;52.424;-1.948;2023-08-20T05:15:05;12.70;;;4.05;;
43363;SDS011;40636;52.424;-1.948;2023-08-20T05:17:32;7.18;;;3.00;;
43363;SDS011;40636;52.424;-1.948;2023-08-20T05:19:59;10.20;;;3.47;;
43363;SDS011;40636;52.424;-1.948;2023-08-20T05:22:26;10.25;;;3.67;;
43363;SDS011;40636;52.424;-1.948;2023-08-20T05:24:53;12.07;;;3.80;;
43363;SDS011;40636;52.424;-1.948;2023-08-20T05:27:19;8.77;;;3.83;;
43363;SDS011;40636;52.424;-1.948;2023-08-20T05:29:46;10.30;;;4.35;;
43363;SDS011;40636;52.424;-1.948;2023-08-20T05:32:13;9.88;;;3.53;;
43363;SDS011;40636;52.424;-1.948;2023-08-20T05:34:41;5.85;;;3.20;;
43363;SDS011;40636;52.424;-1.948;2023-08-20T05:37:08;12.13;;;3.78;;
43363;SDS011;40636;52.424;-1.948;2023-08-20T05:39:40;20.20;;;4.07;;
43363;SDS011;40636;52.424;-1.948;2023-08-20T05:42:08;13.20;;;3.40;;
43363;SDS011;40636;52.424;-1.948;2023-08-20T05:44:35;10.65;;;4.05;;
43363;SDS011;40636;52.424;-1.948;2023-08-20T05:47:03;7.63;;;3.90;;
43363;SDS011;40636;52.424;-1.948;2023-08-20T05:49:31;14.82;;;4.57;;
43363;SDS011;40636;52.424;-1.948;2023-08-20T05:51:58;13.20;;;3.50;;
43363;SDS011;40636;52.424;-1.948;2023-08-20T05:54:25;10.50;;;2.75;;
43363;SDS011;40636;52.424;-1.948;2023-08-20T05:56:52;10.82;;;2.60;;
43363;SDS011;40636;52.424;-1.948;2023-08-20T05:59:19;12.45;;;3.17;;
43363;SDS011;40636;52.424;-1.948;2023-08-20T06:01:45;11.68;;;4.20;;
43363;SDS011;40636;52.424;-1.948;2023-08-20T06:04:12;10.38;;;4.18;;
43363;SDS011;40636;52.424;-1.948;2023-08-20T06:06:39;12.80;;;4.40;;
43363;SDS011;40636;52.424;-1.948;2023-08-20T06:09:07;6.72;;;2.72;;
43363;SDS011;40636;52.424;-1.948;2023-08-20T06:11:35;11.85;;;2.97;;
43363;SDS011;40636;52.424;-1.948;2023-08-20T06:14:02;9.35;;;3.42;;
43363;SDS011;40636;52.424;-1.948;2023-08-20T06:16:29;4.60;;;2.20;;
43363;SDS011;40636;52.424;-1.948;2023-08-20T06:18:57;8.13;;;2.65;;
43363;SDS011;40636;52.424;-1.948;2023-08-20T06:21:28;11.15;;;3.35;;
43363;SDS011;40636;52.424;-1.948;2023-08-20T06:23:55;11.20;;;2.60;;
43363;SDS011;40636;52.424;-1.948;2023-08-20T06:26:22;5.93;;;3.53;;
43363;SDS011;40636;52.424;-1.948;2023-08-20T06:28:49;8.77;;;2.75;;
43363;SDS011;40636;52.424;-1.948;2023-08-20T06:31:15;6.13;;;2.92;;
43363;SDS011;40636;52.424;-1.948;2023-08-20T06:33:42;4.50;;;2.47;;
43363;SDS011;40636;52.424;-1.948;2023-08-20T06:36:09;7.45;;;2.63;;
43363;SDS011;40636;52.424;-1.948;2023-08-20T06:38:37;9.93;;;3.10;;
43363;SDS011;40636;52.424;-1.948;2023-08-20T06:41:03;5.05;;;2.60;;
43363;SDS011;40636;52.424;-1.948;2023-08-20T06:43:30;10.50;;;3.08;;
43363;SDS011;40636;52.424;-1.948;2023-08-20T06:45:57;12.02;;;2.80;;
43363;SDS011;40636;52.424;-1.948;2023-08-20T06:48:23;7.15;;;2.75;;
43363;SDS011;40636;52.424;-1.948;2023-08-20T06:50:51;7.75;;;2.63;;
43363;SDS011;40636;52.424;-1.948;2023-08-20T06:53:18;14.25;;;5.05;;
43363;SDS011;40636;52.424;-1.948;2023-08-20T06:55:44;8.20;;;2.95;;
43363;SDS011;40636;52.424;-1.948;2023-08-20T06:58:11;12.07;;;2.67;;
43363;SDS011;40636;52.424;-1.948;2023-08-20T07:00:38;5.93;;;2.10;;
43363;SDS011;40636;52.424;-1.948;2023-08-20T07:03:04;8.48;;;2.55;;
43363;SDS011;40636;52.424;-1.948;2023-08-20T07:05:31;7.78;;;2.58;;
43363;SDS011;40636;52.424;-1.948;2023-08-20T07:07:58;6.22;;;2.70;;
43363;SDS011;40636;52.424;-1.948;2023-08-20T07:10:24;8.60;;;3.67;;
43363;SDS011;40636;52.424;-1.948;2023-08-20T07:12:51;6.47;;;2.00;;
43363;SDS011;40636;52.424;-1.948;2023-08-20T07:15:18;5.82;;;2.10;;
43363;SDS011;40636;52.424;-1.948;2023-08-20T07:17:45;6.38;;;2.55;;
43363;SDS011;40636;52.424;-1.948;2023-08-20T07:20:12;3.30;;;1.77;;
43363;SDS011;40636;52.424;-1.948;2023-08-20T07:22:39;5.57;;;2.28;;
43363;SDS011;40636;52.424;-1.948;2023-08-20T07:25:06;5.85;;;2.55;;
43363;SDS011;40636;52.424;-1.948;2023-08-20T07:27:33;7.22;;;2.53;;
43363;SDS011;40636;52.424;-1.948;2023-08-20T07:30:00;7.72;;;2.08;;
43363;SDS011;40636;52.424;-1.948;2023-08-20T07:32:27;8.85;;;2.55;;
43363;SDS011;40636;52.424;-1.948;2023-08-20T07:34:53;3.70;;;1.63;;
43363;SDS011;40636;52.424;-1.948;2023-08-20T07:37:20;4.32;;;2.17;;
43363;SDS011;40636;52.424;-1.948;2023-08-20T07:39:47;7.55;;;2.80;;
43363;SDS011;40636;52.424;-1.948;2023-08-20T07:42:14;6.82;;;1.98;;
43363;SDS011;40636;52.424;-1.948;2023-08-20T07:44:40;5.40;;;1.77;;
43363;SDS011;40636;52.424;-1.948;2023-08-20T07:47:07;5.55;;;1.70;;
43363;SDS011;40636;52.424;-1.948;2023-08-20T07:49:34;6.00;;;1.80;;
43363;SDS011;40636;52.424;-1.948;2023-08-20T07:52:01;6.65;;;2.38;;
43363;SDS011;40636;52.424;-1.948;2023-08-20T07:54:28;5.15;;;1.75;;
43363;SDS011;40636;52.424;-1.948;2023-08-20T07:56:55;8.00;;;2.25;;
43363;SDS011;40636;52.424;-1.948;2023-08-20T07:59:22;6.15;;;2.13;;
43363;SDS011;40636;52.424;-1.948;2023-08-20T08:01:49;6.55;;;2.05;;
43363;SDS011;40636;52.424;-1.948;2023-08-20T08:04:15;7.25;;;1.63;;
43363;SDS011;40636;52.424;-1.948;2023-08-20T08:06:42;8.38;;;2.40;;
43363;SDS011;40636;52.424;-1.948;2023-08-20T08:09:18;10.55;;;2.28;;
43363;SDS011;40636;52.424;-1.948;2023-08-20T08:11:53;7.18;;;1.77;;
43363;SDS011;40636;52.424;-1.948;2023-08-20T08:14:19;8.50;;;1.90;;
43363;SDS011;40636;52.424;-1.948;2023-08-20T08:16:46;9.43;;;1.95;;
43363;SDS011;40636;52.424;-1.948;2023-08-20T08:19:14;7.03;;;1.95;;
43363;SDS011;40636;52.424;-1.948;2023-08-20T08:21:41;3.28;;;2.13;;
43363;SDS011;40636;52.424;-1.948;2023-08-20T08:24:10;4.85;;;1.67;;
43363;SDS011;40636;52.424;-1.948;2023-08-20T08:26:37;7.82;;;2.17;;
43363;SDS011;40636;52.424;-1.948;2023-08-20T08:29:04;2.60;;;1.65;;
43363;SDS011;40636;52.424;-1.948;2023-08-20T08:31:32;2.97;;;1.48;;
43363;SDS011;40636;52.424;-1.948;2023-08-20T08:33:59;8.93;;;1.73;;
43363;SDS011;40636;52.424;-1.948;2023-08-20T08:36:27;5.95;;;2.33;;
43363;SDS011;40636;52.424;-1.948;2023-08-20T08:38:54;4.63;;;1.90;;
43363;SDS011;40636;52.424;-1.948;2023-08-20T08:41:22;6.25;;;1.85;;
43363;SDS011;40636;52.424;-1.948;2023-08-20T08:43:53;3.15;;;2.30;;
43363;SDS011;40636;52.424;-1.948;2023-08-20T08:46:21;3.13;;;1.52;;
43363;SDS011;40636;52.424;-1.948;2023-08-20T08:48:51;4.70;;;1.77;;
43363;SDS011;40636;52.424;-1.948;2023-08-20T08:51:19;4.35;;;1.73;;
43363;SDS011;40636;52.424;-1.948;2023-08-20T08:53:45;4.05;;;1.85;;
43363;SDS011;40636;52.424;-1.948;2023-08-20T08:56:13;4.65;;;1.60;;
43363;SDS011;40636;52.424;-1.948;2023-08-20T08:58:39;9.30;;;2.40;;
43363;SDS011;40636;52.424;-1.948;2023-08-20T09:01:06;5.28;;;1.77;;
43363;SDS011;40636;52.424;-1.948;2023-08-20T09:03:33;6.65;;;2.53;;
43363;SDS011;40636;52.424;-1.948;2023-08-20T09:06:01;4.32;;;1.40;;
43363;SDS011;40636;52.424;-1.948;2023-08-20T09:08:30;5.50;;;1.95;;
43363;SDS011;40636;52.424;-1.948;2023-08-20T09:10:58;5.72;;;2.08;;
43363;SDS011;40636;52.424;-1.948;2023-08-20T09:13:36;13.32;;;2.10;;
43363;SDS011;40636;52.424;-1.948;2023-08-20T09:16:09;5.60;;;1.80;;
43363;SDS011;40636;52.424;-1.948;2023-08-20T09:18:40;3.38;;;2.03;;
43363;SDS011;40636;52.424;-1.948;2023-08-20T09:21:08;7.28;;;2.10;;
43363;SDS011;40636;52.424;-1.948;2023-08-20T09:23:36;5.55;;;1.83;;
43363;SDS011;40636;52.424;-1.948;2023-08-20T09:26:06;6.38;;;2.17;;
43363;SDS011;40636;52.424;-1.948;2023-08-20T09:28:43;5.95;;;2.08;;
43363;SDS011;40636;52.424;-1.948;2023-08-20T09:31:12;3.88;;;1.60;;
43363;SDS011;40636;52.424;-1.948;2023-08-20T09:33:49;3.97;;;2.13;;
43363;SDS011;40636;52.424;-1.948;2023-08-20T09:36:31;3.95;;;1.73;;
43363;SDS011;40636;52.424;-1.948;2023-08-20T09:39:02;6.05;;;1.55;;
43363;SDS011;40636;52.424;-1.948;2023-08-20T09:41:29;4.72;;;1.40;;
43363;SDS011;40636;52.424;-1.948;2023-08-20T09:43:58;5.68;;;1.75;;
43363;SDS011;40636;52.424;-1.948;2023-08-20T09:46:26;3.55;;;1.63;;
43363;SDS011;40636;52.424;-1.948;2023-08-20T09:48:57;1.77;;;1.30;;
43363;SDS011;40636;52.424;-1.948;2023-08-20T09:51:24;4.18;;;1.70;;
43363;SDS011;40636;52.424;-1.948;2023-08-20T09:53:57;3.03;;;1.40;;
43363;SDS011;40636;52.424;-1.948;2023-08-20T09:56:34;1.67;;;1.52;;
43363;SDS011;40636;52.424;-1.948;2023-08-20T09:59:05;3.30;;;1.42;;
43363;SDS011;40636;52.424;-1.948;2023-08-20T10:01:32;3.40;;;1.35;;
43363;SDS011;40636;52.424;-1.948;2023-08-20T10:04:01;3.85;;;1.33;;
43363;SDS011;40636;52.424;-1.948;2023-08-20T10:06:29;3.55;;;1.48;;
43363;SDS011;40636;52.424;-1.948;2023-08-20T10:08:56;3.28;;;1.20;;
43363;SDS011;40636;52.424;-1.948;2023-08-20T10:11:25;2.35;;;1.30;;
43363;SDS011;40636;52.424;-1.948;2023-08-20T10:13:53;2.70;;;1.25;;
43363;SDS011;40636;52.424;-1.948;2023-08-20T10:16:20;6.80;;;1.50;;
43363;SDS011;40636;52.424;-1.948;2023-08-20T10:18:48;4.13;;;1.50;;
43363;SDS011;40636;52.424;-1.948;2023-08-20T10:21:16;2.97;;;1.52;;
43363;SDS011;40636;52.424;-1.948;2023-08-20T10:23:45;4.35;;;1.58;;
43363;SDS011;40636;52.424;-1.948;2023-08-20T10:26:15;3.05;;;1.55;;
43363;SDS011;40636;52.424;-1.948;2023-08-20T10:28:43;4.70;;;1.45;;
43363;SDS011;40636;52.424;-1.948;2023-08-20T10:31:12;5.03;;;1.25;;
43363;SDS011;40636;52.424;-1.948;2023-08-20T10:33:55;2.50;;;1.83;;
43363;SDS011;40636;52.424;-1.948;2023-08-20T10:36:24;5.40;;;1.60;;
43363;SDS011;40636;52.424;-1.948;2023-08-20T10:38:55;3.33;;;1.45;;
43363;SDS011;40636;52.424;-1.948;2023-08-20T10:41:26;3.42;;;1.50;;
43363;SDS011;40636;52.424;-1.948;2023-08-20T10:44:00;5.68;;;1.65;;
43363;SDS011;40636;52.424;-1.948;2023-08-20T10:46:28;2.63;;;1.40;;
43363;SDS011;40636;52.424;-1.948;2023-08-20T10:48:59;1.50;;;1.00;;
43363;SDS011;40636;52.424;-1.948;2023-08-20T10:51:29;3.78;;;1.10;;
43363;SDS011;40636;52.424;-1.948;2023-08-20T10:54:03;1.00;;;1.00;;
43363;SDS011;40636;52.424;-1.948;2023-08-20T10:56:41;2.75;;;1.00;;
43363;SDS011;40636;52.424;-1.948;2023-08-20T10:59:12;2.58;;;0.80;;
43363;SDS011;40636;52.424;-1.948;2023-08-20T11:01:44;2.35;;;0.70;;
43363;SDS011;40636;52.424;-1.948;2023-08-20T11:04:15;1.83;;;0.90;;
43363;SDS011;40636;52.424;-1.948;2023-08-20T11:06:44;3.28;;;1.15;;
43363;SDS011;40636;52.424;-1.948;2023-08-20T11:09:11;2.60;;;1.13;;
43363;SDS011;40636;52.424;-1.948;2023-08-20T11:11:38;1.15;;;0.70;;
43363;SDS011;40636;52.424;-1.948;2023-08-20T11:14:12;3.78;;;0.90;;
43363;SDS011;40636;52.424;-1.948;2023-08-20T11:16:43;2.67;;;0.85;;
43363;SDS011;40636;52.424;-1.948;2023-08-20T11:19:11;1.42;;;0.80;;
43363;SDS011;40636;52.424;-1.948;2023-08-20T11:21:39;2.90;;;0.90;;
43363;SDS011;40636;52.424;-1.948;2023-08-20T11:24:07;5.10;;;1.20;;
43363;SDS011;40636;52.424;-1.948;2023-08-20T11:26:35;6.55;;;1.90;;
43363;SDS011;40636;52.424;-1.948;2023-08-20T11:29:06;5.18;;;1.95;;
43363;SDS011;40636;52.424;-1.948;2023-08-20T11:31:33;4.65;;;0.90;;
43363;SDS011;40636;52.424;-1.948;2023-08-20T11:34:02;2.95;;;0.73;;
43363;SDS011;40636;52.424;-1.948;2023-08-20T11:36:29;2.85;;;1.05;;
43363;SDS011;40636;52.424;-1.948;2023-08-20T11:38:57;2.13;;;0.82;;
43363;SDS011;40636;52.424;-1.948;2023-08-20T11:41:24;3.55;;;1.40;;
43363;SDS011;40636;52.424;-1.948;2023-08-20T11:43:52;1.58;;;1.23;;
43363;SDS011;40636;52.424;-1.948;2023-08-20T11:46:20;1.65;;;0.80;;
43363;SDS011;40636;52.424;-1.948;2023-08-20T11:51:38;2.95;;;1.02;;
43363;SDS011;40636;52.424;-1.948;2023-08-20T11:54:10;3.35;;;1.00;;
43363;SDS011;40636;52.424;-1.948;2023-08-20T11:56:50;3.38;;;0.85;;
43363;SDS011;40636;52.424;-1.948;2023-08-20T11:59:18;6.22;;;1.20;;
43363;SDS011;40636;52.424;-1.948;2023-08-20T12:01:51;6.43;;;1.52;;
43363;SDS011;40636;52.424;-1.948;2023-08-20T12:04:23;5.55;;;1.92;;
43363;SDS011;40636;52.424;-1.948;2023-08-20T12:07:02;1.60;;;1.10;;
43363;SDS011;40636;52.424;-1.948;2023-08-20T12:09:33;3.05;;;0.68;;
43363;SDS011;40636;52.424;-1.948;2023-08-20T12:12:00;2.53;;;0.90;;
43363;SDS011;40636;52.424;-1.948;2023-08-20T12:14:28;3.03;;;0.82;;
43363;SDS011;40636;52.424;-1.948;2023-08-20T12:16:55;0.57;;;0.57;;
43363;SDS011;40636;52.424;-1.948;2023-08-20T12:19:23;2.42;;;0.98;;
43363;SDS011;40636;52.424;-1.948;2023-08-20T12:21:51;2.03;;;0.90;;
43363;SDS011;40636;52.424;-1.948;2023-08-20T12:24:18;1.38;;;0.77;;
43363;SDS011;40636;52.424;-1.948;2023-08-20T12:26:47;1.95;;;0.88;;
43363;SDS011;40636;52.424;-1.948;2023-08-20T12:29:13;2.72;;;0.90;;
43363;SDS011;40636;52.424;-1.948;2023-08-20T12:31:40;2.08;;;1.10;;
43363;SDS011;40636;52.424;-1.948;2023-08-20T12:34:08;1.25;;;0.80;;
43363;SDS011;40636;52.424;-1.948;2023-08-20T12:36:36;2.88;;;0.98;;
43363;SDS011;40636;52.424;-1.948;2023-08-20T12:39:03;3.40;;;0.80;;
43363;SDS011;40636;52.424;-1.948;2023-08-20T12:41:31;4.05;;;0.90;;
43363;SDS011;40636;52.424;-1.948;2023-08-20T12:43:58;0.70;;;0.60;;
43363;SDS011;40636;52.424;-1.948;2023-08-20T12:46:25;1.75;;;0.77;;
43363;SDS011;40636;52.424;-1.948;2023-08-20T12:48:52;3.97;;;1.02;;
43363;SDS011;40636;52.424;-1.948;2023-08-20T12:51:19;0.75;;;0.70;;
43363;SDS011;40636;52.424;-1.948;2023-08-20T12:53:47;3.00;;;0.82;;
43363;SDS011;40636;52.424;-1.948;2023-08-20T12:56:14;4.00;;;1.13;;
43363;SDS011;40636;52.424;-1.948;2023-08-20T12:58:42;3.78;;;0.90;;
43363;SDS011;40636;52.424;-1.948;2023-08-20T13:01:09;1.05;;;0.80;;
43363;SDS011;40636;52.424;-1.948;2023-08-20T13:03:36;2.75;;;0.95;;
43363;SDS011;40636;52.424;-1.948;2023-08-20T13:06:04;1.67;;;1.02;;
43363;SDS011;40636;52.424;-1.948;2023-08-20T13:08:31;1.83;;;0.80;;
43363;SDS011;40636;52.424;-1.948;2023-08-20T13:10:58;2.83;;;0.90;;
43363;SDS011;40636;52.424;-1.948;2023-08-20T13:13:26;2.60;;;0.98;;
43363;SDS011;40636;52.424;-1.948;2023-08-20T13:15:53;5.18;;;1.52;;
43363;SDS011;40636;52.424;-1.948;2023-08-20T13:18:20;2.22;;;0.80;;
43363;SDS011;40636;52.424;-1.948;2023-08-20T13:20:52;3.00;;;0.82;;
43363;SDS011;40636;52.424;-1.948;2023-08-20T13:23:19;1.02;;;0.85;;
43363;SDS011;40636;52.424;-1.948;2023-08-20T13:25:47;2.55;;;0.93;;
43363;SDS011;40636;52.424;-1.948;2023-08-20T13:28:14;1.63;;;0.80;;
43363;SDS011;40636;52.424;-1.948;2023-08-20T13:30:41;1.42;;;0.60;;
43363;SDS011;40636;52.424;-1.948;2023-08-20T13:33:08;5.63;;;1.08;;
43363;SDS011;40636;52.424;-1.948;2023-08-20T13:35:35;3.13;;;0.80;;
43363;SDS011;40636;52.424;-1.948;2023-08-20T13:38:02;2.28;;;0.95;;
43363;SDS011;40636;52.424;-1.948;2023-08-20T13:40:31;2.00;;;0.93;;
43363;SDS011;40636;52.424;-1.948;2023-08-20T13:42:57;2.50;;;0.73;;
43363;SDS011;40636;52.424;-1.948;2023-08-20T13:45:24;2.05;;;0.77;;
43363;SDS011;40636;52.424;-1.948;2023-08-20T13:47:52;4.85;;;0.98;;
43363;SDS011;40636;52.424;-1.948;2023-08-20T13:50:18;0.90;;;0.80;;
43363;SDS011;40636;52.424;-1.948;2023-08-20T13:52:45;1.55;;;0.70;;
43363;SDS011;40636;52.424;-1.948;2023-08-20T13:55:12;3.03;;;0.70;;
43363;SDS011;40636;52.424;-1.948;2023-08-20T13:57:39;4.00;;;1.10;;
43363;SDS011;40636;52.424;-1.948;2023-08-20T14:00:06;7.32;;;1.58;;
43363;SDS011;40636;52.424;-1.948;2023-08-20T14:02:35;2.60;;;1.10;;
43363;SDS011;40636;52.424;-1.948;2023-08-20T14:05:02;4.25;;;1.48;;
43363;SDS011;40636;52.424;-1.948;2023-08-20T14:07:32;3.85;;;1.00;;
43363;SDS011;40636;52.424;-1.948;2023-08-20T14:10:00;1.27;;;0.65;;
43363;SDS011;40636;52.424;-1.948;2023-08-20T14:12:28;2.50;;;1.20;;
43363;SDS011;40636;52.424;-1.948;2023-08-20T14:14:55;4.53;;;1.40;;
43363;SDS011;40636;52.424;-1.948;2023-08-20T14:17:22;4.25;;;0.90;;
43363;SDS011;40636;52.424;-1.948;2023-08-20T14:19:49;1.45;;;0.90;;
43363;SDS011;40636;52.424;-1.948;2023-08-20T14:22:16;3.08;;;1.10;;
43363;SDS011;40636;52.424;-1.948;2023-08-20T14:24:44;3.17;;;0.77;;
43363;SDS011;40636;52.424;-1.948;2023-08-20T14:27:10;2.10;;;0.70;;
43363;SDS011;40636;52.424;-1.948;2023-08-20T14:29:38;1.15;;;0.70;;
43363;SDS011;40636;52.424;-1.948;2023-08-20T14:32:05;1.27;;;1.17;;
43363;SDS011;40636;52.424;-1.948;2023-08-20T14:34:32;2.28;;;1.45;;
43363;SDS011;40636;52.424;-1.948;2023-08-20T14:36:59;1.58;;;0.95;;
43363;SDS011;40636;52.424;-1.948;2023-08-20T14:39:25;2.20;;;0.60;;
43363;SDS011;40636;52.424;-1.948;2023-08-20T14:41:52;2.67;;;0.85;;
43363;SDS011;40636;52.424;-1.948;2023-08-20T14:44:19;1.95;;;0.90;;
43363;SDS011;40636;52.424;-1.948;2023-08-20T14:46:46;3.20;;;1.00;;